Austin, Texas
Traffic Map
Current Weather Conditions
Austin, Texas
Overcast
Overcast
23°
Feels Like: 23°
Wind Chill: 23° Ceiling: 1900
Heat Index: 23° Visibility: 10mi
Dew Point: 19° Wind: 10mph
Humidity: 79% Direction: 160° (SSE)
Pressure: 29.88in Gusts: 23mph
Raw Report DataKATT 200551Z AUTO 16009G20KT 10SM BKN019 OVC027 23/19 A2988 RMK AO2 RAB28E38 SLP108 P0000 60000 T02280189 10239 20228 402670206 50009 $
Traffic Incident Summary
Active as of:
Severity:
Category:
InformationThere was an issue retrieving the traffic information for this location. Please try a different location or try again shortly.
Advertisements